createdAt,value
2022-10-31T00:01:23.386Z,12.10
2022-10-31T00:03:51.153Z,11.20
2022-10-31T00:06:19.536Z,11.70
2022-10-31T00:08:48.119Z,14.90
2022-10-31T00:11:15.884Z,18.30
2022-10-31T00:13:43.629Z,24.40
2022-10-31T00:16:15.297Z,21.30
2022-10-31T00:18:43.058Z,28.40
2022-10-31T00:21:11.027Z,20.10
2022-10-31T00:23:38.653Z,65.00
2022-10-31T00:26:07.986Z,64.90
2022-10-31T00:28:35.956Z,142.50
2022-10-31T00:31:04.846Z,114.30
2022-10-31T00:33:34.147Z,52.70
2022-10-31T00:36:01.706Z,18.60
2022-10-31T00:38:29.801Z,12.20
2022-10-31T00:40:57.448Z,13.30
2022-10-31T00:43:25.226Z,14.40
2022-10-31T00:45:52.965Z,14.80
2022-10-31T00:48:20.838Z,13.80
2022-10-31T00:50:48.412Z,10.90
2022-10-31T00:53:16.375Z,12.40
2022-10-31T00:55:44.299Z,13.60
2022-10-31T00:58:12.165Z,14.60
2022-10-31T01:00:40.373Z,15.30
2022-10-31T01:03:08.381Z,16.00
2022-10-31T01:05:36.214Z,14.90
2022-10-31T01:08:04.171Z,14.00
2022-10-31T01:10:31.747Z,15.80
2022-10-31T01:12:59.527Z,14.30
2022-10-31T01:15:27.668Z,14.70
2022-10-31T01:17:55.428Z,12.70
2022-10-31T01:20:23.095Z,14.00
2022-10-31T01:22:50.759Z,14.00
2022-10-31T01:25:18.484Z,13.70
2022-10-31T01:27:46.492Z,12.10
2022-10-31T01:30:14.557Z,13.40
2022-10-31T01:32:42.832Z,13.00
2022-10-31T01:35:10.570Z,13.40
2022-10-31T01:37:38.198Z,12.60
2022-10-31T01:40:06.233Z,12.40
2022-10-31T01:42:34.574Z,13.50
2022-10-31T01:45:02.883Z,12.60
2022-10-31T01:47:33.230Z,13.60
2022-10-31T01:50:02.199Z,12.20
2022-10-31T01:52:40.001Z,11.80
2022-10-31T01:55:12.369Z,13.70
2022-10-31T01:57:42.800Z,15.00
2022-10-31T02:00:11.166Z,13.90
2022-10-31T02:02:39.165Z,13.20
2022-10-31T02:05:09.270Z,12.20
2022-10-31T02:07:40.302Z,11.80
2022-10-31T02:10:08.475Z,11.00
2022-10-31T02:12:37.574Z,10.60
2022-10-31T02:15:06.470Z,10.30
2022-10-31T02:17:34.528Z,11.20
2022-10-31T02:20:22.465Z,10.50
2022-10-31T02:22:52.982Z,10.10
2022-10-31T02:25:23.930Z,9.60
2022-10-31T02:28:09.905Z,10.60
2022-10-31T02:30:46.556Z,10.10
2022-10-31T02:33:14.459Z,9.90
2022-10-31T02:35:51.550Z,10.30
2022-10-31T02:38:28.418Z,9.90
2022-10-31T02:40:56.289Z,10.10
2022-10-31T02:43:47.189Z,9.80
2022-10-31T02:46:20.384Z,9.50
2022-10-31T02:48:49.376Z,9.10
2022-10-31T02:51:17.754Z,9.90
2022-10-31T02:53:45.514Z,9.70
2022-10-31T02:56:15.890Z,9.40
2022-10-31T02:58:46.170Z,9.30
2022-10-31T03:01:14.040Z,9.30
2022-10-31T03:03:44.767Z,9.30
2022-10-31T03:06:19.969Z,9.50
2022-10-31T03:08:56.169Z,9.00
2022-10-31T03:11:29.769Z,9.20
2022-10-31T03:14:01.521Z,9.10
2022-10-31T03:16:29.088Z,9.60
2022-10-31T03:19:17.591Z,9.20
2022-10-31T03:21:46.639Z,9.30
2022-10-31T03:24:15.409Z,9.00
2022-10-31T03:26:45.734Z,9.00
2022-10-31T03:29:15.752Z,8.80
2022-10-31T03:31:49.249Z,8.80
2022-10-31T03:34:18.213Z,8.60
2022-10-31T03:36:48.588Z,8.70
2022-10-31T03:39:19.100Z,8.10
2022-10-31T03:41:50.428Z,8.20
2022-10-31T03:44:20.333Z,8.20
2022-10-31T03:46:48.119Z,7.80
2022-10-31T03:49:16.086Z,7.50
2022-10-31T03:51:48.156Z,7.20
2022-10-31T03:54:36.497Z,6.80
2022-10-31T03:57:28.025Z,6.40
2022-10-31T04:00:21.995Z,6.80
2022-10-31T04:03:07.481Z,7.10
2022-10-31T04:05:36.160Z,7.10
2022-10-31T04:08:05.874Z,7.50
2022-10-31T04:10:34.150Z,7.50
2022-10-31T04:13:07.419Z,7.30
2022-10-31T04:15:36.042Z,7.20
2022-10-31T04:18:05.393Z,8.00
2022-10-31T04:20:34.927Z,10.80
2022-10-31T04:23:03.923Z,10.70
2022-10-31T04:25:32.811Z,10.20
2022-10-31T04:28:00.938Z,10.00
2022-10-31T04:30:29.259Z,9.10
2022-10-31T04:32:57.188Z,9.00
2022-10-31T04:35:25.097Z,8.60
2022-10-31T04:37:52.858Z,9.90
2022-10-31T04:40:20.628Z,9.80
2022-10-31T04:42:48.487Z,10.90
2022-10-31T04:45:20.101Z,10.90
2022-10-31T04:47:49.071Z,11.10
2022-10-31T04:50:16.898Z,10.90
2022-10-31T04:52:45.791Z,11.70
2022-10-31T04:55:14.370Z,11.40
2022-10-31T04:57:43.162Z,11.70
2022-10-31T05:00:11.946Z,11.70
2022-10-31T05:02:49.953Z,11.70
2022-10-31T05:05:18.947Z,11.80
2022-10-31T05:07:47.741Z,11.60
2022-10-31T05:10:17.444Z,12.20
2022-10-31T05:12:49.204Z,11.70
2022-10-31T05:15:17.784Z,11.80
2022-10-31T05:17:45.654Z,11.60
2022-10-31T05:20:13.921Z,11.30
2022-10-31T05:22:45.788Z,12.20
2022-10-31T05:25:15.525Z,12.30
2022-10-31T05:27:44.687Z,12.00
2022-10-31T05:30:14.755Z,12.30
2022-10-31T05:32:44.993Z,11.90
2022-10-31T05:35:14.049Z,12.10
2022-10-31T05:37:41.786Z,11.10
2022-10-31T05:40:11.091Z,11.00
2022-10-31T05:42:42.648Z,11.10
2022-10-31T05:45:13.650Z,11.70
2022-10-31T05:47:42.470Z,11.50
2022-10-31T05:50:10.991Z,12.40
2022-10-31T05:52:38.925Z,12.60
2022-10-31T05:55:06.872Z,13.70
2022-10-31T05:57:35.795Z,11.40
2022-10-31T06:00:04.407Z,11.20
2022-10-31T06:02:36.645Z,11.70
2022-10-31T06:05:05.870Z,11.90
2022-10-31T06:07:35.433Z,11.60
2022-10-31T06:10:04.829Z,11.20
2022-10-31T06:12:32.904Z,11.00
2022-10-31T06:15:00.934Z,12.00
2022-10-31T06:17:29.044Z,11.50
2022-10-31T06:19:58.530Z,11.60
2022-10-31T06:22:28.057Z,11.80
2022-10-31T06:24:56.356Z,11.40
2022-10-31T06:27:24.714Z,12.30
2022-10-31T06:29:53.243Z,19.20
2022-10-31T06:32:22.453Z,29.70
2022-10-31T06:34:50.864Z,18.00
2022-10-31T06:37:18.639Z,21.60
2022-10-31T06:39:46.290Z,21.80
2022-10-31T06:42:16.204Z,20.80
2022-10-31T06:44:44.786Z,17.00
2022-10-31T06:47:12.769Z,16.30
2022-10-31T06:49:41.443Z,16.00
2022-10-31T06:52:09.922Z,15.30
2022-10-31T06:54:39.677Z,16.00
2022-10-31T06:57:08.503Z,16.40
2022-10-31T06:59:37.372Z,17.10
2022-10-31T07:02:10.406Z,19.10
2022-10-31T07:04:38.212Z,19.30
2022-10-31T07:07:05.859Z,17.00
2022-10-31T07:09:33.687Z,16.50
2022-10-31T07:12:03.712Z,15.70
2022-10-31T07:14:31.467Z,15.20
2022-10-31T07:16:59.238Z,15.80
2022-10-31T07:19:27.003Z,14.50
2022-10-31T07:21:54.965Z,15.20
2022-10-31T07:24:22.754Z,15.40
2022-10-31T07:26:50.947Z,21.60
2022-10-31T07:29:18.667Z,22.40
2022-10-31T07:31:47.351Z,22.00
2022-10-31T07:34:15.224Z,21.30
2022-10-31T07:36:42.878Z,18.20
2022-10-31T07:39:11.367Z,17.80
2022-10-31T07:41:39.779Z,18.00
2022-10-31T07:44:07.964Z,18.10
2022-10-31T07:46:35.980Z,18.20
2022-10-31T07:49:03.741Z,18.70
2022-10-31T07:51:31.403Z,19.30
2022-10-31T07:53:59.187Z,20.50
2022-10-31T07:56:26.798Z,25.20
2022-10-31T07:58:54.694Z,25.80
2022-10-31T08:01:22.356Z,25.70
2022-10-31T08:03:50.240Z,24.80
2022-10-31T08:06:18.202Z,23.40
2022-10-31T08:08:46.127Z,22.60
2022-10-31T08:11:14.130Z,19.40
2022-10-31T08:13:42.014Z,16.00
2022-10-31T08:16:11.398Z,13.50
2022-10-31T08:18:39.377Z,11.30
2022-10-31T08:21:07.136Z,11.10
2022-10-31T08:23:35.782Z,9.80
2022-10-31T08:26:03.801Z,9.30
2022-10-31T08:28:33.948Z,9.40
2022-10-31T08:31:02.997Z,8.60
2022-10-31T08:33:30.657Z,8.70
2022-10-31T08:36:01.289Z,8.10
2022-10-31T08:38:29.051Z,8.00
2022-10-31T08:40:56.827Z,8.10
2022-10-31T08:43:24.479Z,8.00
2022-10-31T08:45:52.342Z,7.30
2022-10-31T08:48:20.338Z,8.80
2022-10-31T08:50:48.389Z,8.40
2022-10-31T08:53:20.062Z,7.70
2022-10-31T08:55:48.018Z,8.30
2022-10-31T08:58:19.606Z,8.40
2022-10-31T09:00:48.266Z,8.40
2022-10-31T09:03:25.224Z,7.60
2022-10-31T09:05:56.502Z,8.70
2022-10-31T09:08:28.426Z,8.00
2022-10-31T09:10:57.733Z,9.80
2022-10-31T09:13:28.170Z,9.10
2022-10-31T09:15:57.481Z,9.40
2022-10-31T09:18:25.832Z,12.10
2022-10-31T09:20:53.410Z,10.30
2022-10-31T09:23:24.837Z,9.70
2022-10-31T09:25:53.652Z,8.80
2022-10-31T09:28:22.715Z,9.30
2022-10-31T09:30:52.222Z,8.80
2022-10-31T09:33:20.423Z,8.40
2022-10-31T09:35:48.166Z,7.70
2022-10-31T09:38:17.785Z,7.80
2022-10-31T09:40:57.740Z,7.90
2022-10-31T09:43:37.568Z,8.00
2022-10-31T09:46:05.234Z,8.10
2022-10-31T09:49:03.100Z,11.40
2022-10-31T09:51:36.145Z,13.10
2022-10-31T09:54:05.230Z,30.30
2022-10-31T09:56:33.587Z,34.30
2022-10-31T09:59:02.673Z,16.50
2022-10-31T10:01:53.519Z,29.50
2022-10-31T10:04:34.730Z,11.00
2022-10-31T10:07:06.799Z,9.60
2022-10-31T10:09:34.567Z,10.00
2022-10-31T10:12:10.884Z,8.40
2022-10-31T10:14:38.800Z,8.30
2022-10-31T10:17:23.879Z,8.70
2022-10-31T10:20:03.699Z,8.80
2022-10-31T10:22:43.868Z,8.50
2022-10-31T10:25:11.700Z,8.30
2022-10-31T10:27:59.204Z,8.00
2022-10-31T10:30:45.364Z,7.90
2022-10-31T10:33:19.569Z,7.80
2022-10-31T10:35:50.297Z,7.50
2022-10-31T10:38:25.077Z,7.70
2022-10-31T10:40:54.137Z,8.10
2022-10-31T10:43:25.167Z,8.10
2022-10-31T10:46:24.270Z,7.60
2022-10-31T10:49:13.332Z,8.10
2022-10-31T10:52:19.517Z,7.90
2022-10-31T10:54:51.247Z,7.10
2022-10-31T10:57:37.337Z,7.60
2022-10-31T11:00:20.779Z,7.90
2022-10-31T11:02:49.708Z,7.90
2022-10-31T11:05:38.530Z,8.30
2022-10-31T11:08:13.245Z,8.60
2022-10-31T11:10:41.426Z,8.40
2022-10-31T11:13:16.973Z,8.10
2022-10-31T11:15:53.844Z,7.90
2022-10-31T11:18:22.983Z,8.20
2022-10-31T11:20:55.190Z,7.90
2022-10-31T11:23:24.623Z,7.80
2022-10-31T11:25:52.526Z,7.70
2022-10-31T11:28:20.237Z,7.70
2022-10-31T11:30:49.428Z,8.00
2022-10-31T11:33:24.274Z,7.20
2022-10-31T11:35:56.926Z,8.30
2022-10-31T11:38:31.059Z,7.60
2022-10-31T11:41:01.628Z,7.50
2022-10-31T11:43:30.702Z,7.60
2022-10-31T11:45:58.547Z,8.30
2022-10-31T11:48:26.615Z,7.60
2022-10-31T11:50:58.689Z,7.30
2022-10-31T11:53:31.861Z,7.60
2022-10-31T11:56:13.991Z,6.90
2022-10-31T11:58:42.569Z,7.20
2022-10-31T12:01:27.276Z,7.50
2022-10-31T12:04:09.007Z,7.00
2022-10-31T12:06:38.413Z,7.20
2022-10-31T12:09:12.142Z,7.50
2022-10-31T12:12:04.971Z,9.00
2022-10-31T12:14:51.591Z,7.00
2022-10-31T12:17:25.755Z,7.50
2022-10-31T12:19:56.348Z,7.00
2022-10-31T12:22:24.091Z,7.50
2022-10-31T12:24:57.982Z,4.00
2022-10-31T12:27:25.852Z,7.30
2022-10-31T12:30:14.618Z,7.20
2022-10-31T12:33:01.747Z,7.40
2022-10-31T12:35:37.795Z,7.60
2022-10-31T12:38:08.560Z,7.20
2022-10-31T12:40:36.401Z,7.20
2022-10-31T12:43:13.377Z,7.50
2022-10-31T12:45:50.354Z,7.00
2022-10-31T12:48:20.991Z,7.30
2022-10-31T12:50:58.163Z,7.10
2022-10-31T12:53:38.090Z,7.60
2022-10-31T12:56:11.660Z,7.40
2022-10-31T12:58:45.385Z,9.10
2022-10-31T13:01:22.513Z,7.70
2022-10-31T13:06:21.294Z,10.00
2022-10-31T13:08:52.241Z,7.30
2022-10-31T13:11:23.168Z,7.20
2022-10-31T13:13:50.939Z,7.30
2022-10-31T13:16:21.169Z,8.80
2022-10-31T13:19:09.299Z,382.70
2022-10-31T13:21:54.817Z,327.10
2022-10-31T13:24:28.171Z,70.90
2022-10-31T13:26:57.881Z,27.10
2022-10-31T13:29:37.125Z,13.90
2022-10-31T13:32:06.657Z,9.40
2022-10-31T13:34:42.370Z,9.90
2022-10-31T13:37:16.168Z,35.80
2022-10-31T13:39:46.599Z,66.00
2022-10-31T13:42:14.144Z,42.90
2022-10-31T13:44:42.454Z,588.30
2022-10-31T13:47:25.173Z,134.20
2022-10-31T13:50:05.308Z,35.00
2022-10-31T13:52:34.444Z,28.60
2022-10-31T13:55:02.386Z,15.70
2022-10-31T13:57:34.674Z,14.40
2022-10-31T14:00:06.089Z,10.30
2022-10-31T14:02:35.397Z,8.60
2022-10-31T14:05:21.684Z,26.10
2022-10-31T14:07:50.390Z,145.50
2022-10-31T14:10:18.119Z,292.60
2022-10-31T14:12:47.028Z,50.50
2022-10-31T14:15:15.090Z,17.80
2022-10-31T14:17:51.461Z,505.10
2022-10-31T14:20:19.221Z,258.20
2022-10-31T14:22:47.095Z,229.30
2022-10-31T14:25:27.249Z,232.00
2022-10-31T14:27:55.109Z,51.10
2022-10-31T14:30:25.411Z,31.10
2022-10-31T14:32:54.945Z,30.10
2022-10-31T14:35:25.064Z,356.50
2022-10-31T14:38:02.364Z,230.40
2022-10-31T14:40:37.616Z,169.60
2022-10-31T14:43:24.697Z,107.00
2022-10-31T14:46:02.211Z,40.20
2022-10-31T14:48:34.384Z,27.70
2022-10-31T14:51:04.471Z,60.30
2022-10-31T14:53:37.361Z,57.30
2022-10-31T14:56:10.892Z,64.90
2022-10-31T14:58:41.184Z,46.20
2022-10-31T15:01:20.038Z,20.50
2022-10-31T15:04:17.576Z,12.90
2022-10-31T15:06:44.316Z,25.70
2022-10-31T15:09:24.259Z,13.10
2022-10-31T15:11:52.255Z,16.10
2022-10-31T15:14:25.421Z,16.10
2022-10-31T15:16:53.202Z,15.10
2022-10-31T15:19:23.096Z,13.80
2022-10-31T15:21:52.598Z,15.60
2022-10-31T15:24:20.709Z,13.40
2022-10-31T15:26:51.491Z,13.50
2022-10-31T15:29:24.097Z,16.20
2022-10-31T15:31:53.337Z,16.00
2022-10-31T15:34:23.871Z,19.40
2022-10-31T15:36:51.779Z,21.80
2022-10-31T15:39:21.219Z,21.40
2022-10-31T15:41:54.207Z,55.80
2022-10-31T15:44:33.420Z,55.20
2022-10-31T15:47:01.161Z,46.00
2022-10-31T15:49:36.124Z,73.30
2022-10-31T15:52:07.851Z,49.30
2022-10-31T15:54:38.705Z,53.10
2022-10-31T15:57:11.788Z,66.50
2022-10-31T15:59:43.420Z,61.30
2022-10-31T16:02:13.937Z,54.00
2022-10-31T16:04:58.132Z,53.50
2022-10-31T16:07:30.279Z,48.20
2022-10-31T16:10:00.217Z,45.40
2022-10-31T16:12:39.242Z,45.70
2022-10-31T16:15:08.696Z,42.20
2022-10-31T16:17:42.010Z,93.30
2022-10-31T16:20:20.843Z,76.30
2022-10-31T16:22:51.070Z,61.20
2022-10-31T16:25:46.160Z,43.70
2022-10-31T16:28:24.513Z,37.00
2022-10-31T16:30:56.580Z,47.40
2022-10-31T16:33:28.843Z,47.70
2022-10-31T16:36:09.536Z,44.70
2022-10-31T16:38:43.901Z,50.80
2022-10-31T16:41:11.986Z,47.00
2022-10-31T16:43:40.958Z,46.80
2022-10-31T16:48:43.246Z,57.40
2022-10-31T16:51:13.677Z,57.40
2022-10-31T16:53:46.730Z,30.30
2022-10-31T16:56:18.865Z,50.60
2022-10-31T16:58:46.891Z,65.00
2022-10-31T17:01:14.752Z,57.20
2022-10-31T17:03:42.473Z,59.60
2022-10-31T17:06:14.071Z,54.50
2022-10-31T17:08:42.043Z,43.60
2022-10-31T17:11:13.770Z,42.90
2022-10-31T17:13:41.663Z,41.90
2022-10-31T17:16:09.453Z,43.60
2022-10-31T17:18:37.603Z,115.60
2022-10-31T17:21:06.499Z,128.90
2022-10-31T17:23:34.465Z,74.90
2022-10-31T17:26:02.225Z,145.30
2022-10-31T17:28:29.899Z,61.80
2022-10-31T17:30:59.528Z,39.90
2022-10-31T17:33:27.665Z,29.10
2022-10-31T17:35:55.839Z,22.70
2022-10-31T17:38:23.907Z,17.60
2022-10-31T17:40:53.209Z,14.90
2022-10-31T17:43:23.262Z,25.80
2022-10-31T17:45:51.868Z,27.50
2022-10-31T17:48:20.206Z,27.00
2022-10-31T17:50:48.358Z,27.20
2022-10-31T17:53:16.019Z,16.00
2022-10-31T17:55:43.886Z,16.10
2022-10-31T17:58:14.609Z,14.40
2022-10-31T18:00:44.784Z,15.70
2022-10-31T18:03:15.682Z,51.20
2022-10-31T18:05:51.460Z,56.30
2022-10-31T18:08:21.842Z,48.40
2022-10-31T18:10:50.433Z,41.20
2022-10-31T18:13:18.235Z,38.20
2022-10-31T18:15:45.971Z,29.20
2022-10-31T18:18:13.728Z,20.30
2022-10-31T18:20:41.693Z,17.80
2022-10-31T18:23:09.661Z,14.30
2022-10-31T18:25:39.054Z,19.00
2022-10-31T18:28:07.650Z,14.20
2022-10-31T18:30:38.937Z,23.60
2022-10-31T18:33:06.555Z,35.40
2022-10-31T18:35:38.600Z,27.00
2022-10-31T18:38:07.633Z,19.00
2022-10-31T18:40:37.014Z,26.30
2022-10-31T18:43:04.807Z,33.80
2022-10-31T18:45:46.004Z,30.80
2022-10-31T18:48:17.859Z,29.60
2022-10-31T18:50:47.734Z,21.70
2022-10-31T18:53:15.803Z,14.90
2022-10-31T18:55:47.382Z,11.90
2022-10-31T18:58:19.653Z,10.80
2022-10-31T19:00:48.544Z,11.40
2022-10-31T19:03:19.725Z,11.70
2022-10-31T19:05:56.748Z,12.10
2022-10-31T19:08:24.768Z,11.80
2022-10-31T19:10:52.989Z,28.50
2022-10-31T19:13:20.953Z,28.70
2022-10-31T19:15:48.917Z,31.00
2022-10-31T19:18:17.300Z,65.80
2022-10-31T19:20:45.577Z,54.20
2022-10-31T19:23:13.539Z,50.50
2022-10-31T19:25:45.670Z,48.70
2022-10-31T19:28:15.110Z,138.80
2022-10-31T19:30:53.498Z,183.80
2022-10-31T19:33:24.535Z,159.10
2022-10-31T19:35:54.013Z,155.40
2022-10-31T19:38:23.316Z,164.20
2022-10-31T19:41:02.707Z,146.40
2022-10-31T19:43:30.776Z,150.10
2022-10-31T19:46:00.101Z,158.50
2022-10-31T19:48:31.886Z,128.30
2022-10-31T19:51:02.064Z,110.10
2022-10-31T19:53:30.942Z,100.80
2022-10-31T19:56:00.361Z,90.40
2022-10-31T19:58:31.463Z,68.70
2022-10-31T20:01:00.021Z,53.60
2022-10-31T20:03:28.686Z,44.00
2022-10-31T20:05:56.621Z,75.10
2022-10-31T20:08:24.260Z,237.90
2022-10-31T20:10:55.931Z,213.40
2022-10-31T20:13:26.630Z,120.60
2022-10-31T20:15:58.633Z,77.70
2022-10-31T20:18:28.160Z,48.10
2022-10-31T20:21:10.546Z,38.50
2022-10-31T20:23:39.151Z,63.00
2022-10-31T20:26:09.164Z,38.70
2022-10-31T20:28:40.065Z,24.60
2022-10-31T20:31:12.291Z,32.30
2022-10-31T20:33:42.581Z,102.80
2022-10-31T20:36:12.285Z,140.70
2022-10-31T20:38:41.479Z,309.10
2022-10-31T20:41:10.676Z,239.80
2022-10-31T20:43:39.543Z,159.50
2022-10-31T20:46:12.364Z,137.60
2022-10-31T20:48:40.879Z,141.60
2022-10-31T20:53:52.230Z,112.70
2022-10-31T20:56:23.734Z,108.20
2022-10-31T20:58:54.523Z,123.70
2022-10-31T21:01:24.576Z,93.20
2022-10-31T21:03:53.329Z,75.50
2022-10-31T21:06:23.661Z,47.30
2022-10-31T21:08:52.431Z,41.50
2022-10-31T21:11:22.053Z,39.80
2022-10-31T21:13:53.019Z,46.40
2022-10-31T21:16:23.093Z,59.00
2022-10-31T21:18:52.603Z,128.00
2022-10-31T21:21:29.177Z,119.30
2022-10-31T21:24:02.394Z,71.00
2022-10-31T21:26:33.843Z,52.60
2022-10-31T21:29:02.947Z,46.20
2022-10-31T21:31:33.286Z,90.50
2022-10-31T21:34:03.451Z,50.40
2022-10-31T21:36:31.576Z,43.50
2022-10-31T21:38:59.491Z,81.60
2022-10-31T21:41:28.635Z,60.00
2022-10-31T21:43:57.379Z,50.60
2022-10-31T21:46:30.697Z,52.90
2022-10-31T21:49:02.842Z,52.30
2022-10-31T21:51:34.367Z,54.30
2022-10-31T21:54:23.865Z,51.20
2022-10-31T21:56:52.454Z,41.60
2022-10-31T21:59:20.595Z,38.80
2022-10-31T22:01:50.703Z,38.70
2022-10-31T22:04:20.074Z,43.30
2022-10-31T22:06:48.007Z,42.90
2022-10-31T22:09:17.610Z,45.40
2022-10-31T22:11:47.931Z,56.60
2022-10-31T22:14:15.896Z,50.30
2022-10-31T22:16:45.483Z,44.40
2022-10-31T22:19:14.700Z,43.20
2022-10-31T22:21:46.894Z,45.00
2022-10-31T22:24:15.559Z,57.50
2022-10-31T22:26:44.139Z,49.50
2022-10-31T22:29:13.744Z,50.50
2022-10-31T22:31:42.931Z,55.40
2022-10-31T22:34:11.143Z,55.30
2022-10-31T22:36:39.193Z,48.30
2022-10-31T22:39:07.462Z,45.40
2022-10-31T22:41:36.288Z,44.80
2022-10-31T22:44:05.242Z,45.40
2022-10-31T22:46:37.713Z,48.60
2022-10-31T22:49:07.845Z,44.00
2022-10-31T22:51:38.183Z,45.90
2022-10-31T22:54:07.871Z,33.90
2022-10-31T22:56:36.421Z,33.20
2022-10-31T22:59:04.929Z,34.30
2022-10-31T23:01:33.525Z,31.30
2022-10-31T23:04:01.588Z,32.80
2022-10-31T23:06:30.683Z,35.30
2022-10-31T23:09:02.540Z,40.80
2022-10-31T23:11:34.601Z,37.80
2022-10-31T23:14:10.110Z,37.30
2022-10-31T23:16:42.726Z,34.80
2022-10-31T23:19:12.542Z,35.80
2022-10-31T23:21:54.922Z,31.50
2022-10-31T23:24:24.312Z,28.60
2022-10-31T23:27:07.262Z,25.70
2022-10-31T23:29:36.939Z,23.70
2022-10-31T23:32:05.728Z,25.80
2022-10-31T23:34:33.713Z,24.30
2022-10-31T23:37:01.832Z,25.20
2022-10-31T23:39:29.983Z,25.20
2022-10-31T23:41:58.050Z,24.70
2022-10-31T23:44:26.014Z,28.80
2022-10-31T23:46:54.536Z,30.90
2022-10-31T23:49:23.283Z,29.60
2022-10-31T23:51:51.356Z,33.70
2022-10-31T23:54:19.155Z,34.10
2022-10-31T23:56:47.193Z,33.60
2022-10-31T23:59:15.256Z,38.50
